createdAt,value
2023-10-06T00:04:14.566Z,101581.24
2023-10-06T00:09:29.531Z,101576.77
2023-10-06T00:14:44.720Z,101581.73
2023-10-06T00:19:53.575Z,101584.05
2023-10-06T00:25:01.137Z,101587.02
2023-10-06T00:30:13.179Z,101589.44
2023-10-06T00:35:25.177Z,101590.39
2023-10-06T00:40:36.998Z,101591.73
2023-10-06T00:45:42.581Z,101594.18
2023-10-06T00:50:50.078Z,101596.14
2023-10-06T00:55:55.870Z,101593.40
2023-10-06T01:01:01.550Z,101600.81
2023-10-06T01:06:08.842Z,101608.77
2023-10-06T01:11:18.069Z,101616.84
2023-10-06T01:16:27.730Z,101615.38
2023-10-06T01:21:34.141Z,101613.59
2023-10-06T01:26:42.631Z,101611.72
2023-10-06T01:31:51.410Z,101617.26
2023-10-06T01:36:57.461Z,101608.93
2023-10-06T01:42:05.846Z,101619.36
2023-10-06T01:47:13.238Z,101617.86
2023-10-06T01:52:20.822Z,101614.86
2023-10-06T01:57:27.421Z,101607.63
2023-10-06T02:02:32.985Z,101610.33
2023-10-06T02:07:39.663Z,101617.16
2023-10-06T02:12:46.368Z,101622.58
2023-10-06T02:17:52.027Z,101625.63
2023-10-06T02:23:00.088Z,101626.33
2023-10-06T02:28:07.294Z,101625.59
2023-10-06T02:33:14.391Z,101630.19
2023-10-06T02:38:21.916Z,101634.55
2023-10-06T02:43:29.675Z,101642.27
2023-10-06T02:48:35.285Z,101640.73
2023-10-06T02:53:40.861Z,101638.19
2023-10-06T02:58:47.864Z,101636.95
2023-10-06T03:04:07.366Z,101639.12
2023-10-06T03:09:12.993Z,101641.13
2023-10-06T03:14:25.452Z,101643.71
2023-10-06T03:19:34.216Z,101648.41
2023-10-06T03:24:46.444Z,101654.55
2023-10-06T03:29:55.041Z,101654.27
2023-10-06T03:35:10.310Z,101655.50
2023-10-06T03:40:23.852Z,101651.60
2023-10-06T03:45:32.727Z,101646.15
2023-10-06T03:50:43.532Z,101650.38
2023-10-06T03:55:50.507Z,101633.95
2023-10-06T04:00:56.626Z,101625.25
2023-10-06T04:06:04.618Z,101637.25
2023-10-06T04:11:10.135Z,101639.79
2023-10-06T04:16:16.163Z,101639.42
2023-10-06T04:21:25.544Z,101643.09
2023-10-06T04:26:31.830Z,101641.20
2023-10-06T04:31:38.272Z,101641.90
2023-10-06T04:36:44.351Z,101644.48
2023-10-06T04:41:49.942Z,101646.22
2023-10-06T04:46:55.562Z,101647.19
2023-10-06T04:52:01.883Z,101636.72
2023-10-06T04:57:09.780Z,101633.48
2023-10-06T05:02:15.624Z,101642.69
2023-10-06T05:07:21.317Z,101653.02
2023-10-06T05:12:26.943Z,101668.53
2023-10-06T05:17:33.488Z,101674.41
2023-10-06T05:22:39.118Z,101681.66
2023-10-06T05:27:45.922Z,101689.50
2023-10-06T05:32:51.676Z,101689.34
2023-10-06T05:37:58.879Z,101686.90
2023-10-06T05:43:05.930Z,101693.66
2023-10-06T05:48:12.015Z,101696.04
2023-10-06T05:53:21.301Z,101696.02
2023-10-06T05:58:26.981Z,101702.52
2023-10-06T06:03:32.689Z,101698.71
2023-10-06T06:08:40.689Z,101706.26
2023-10-06T06:13:50.717Z,101711.13
2023-10-06T06:19:07.433Z,101715.94
2023-10-06T06:24:13.518Z,101722.58
2023-10-06T06:29:51.136Z,101726.41
2023-10-06T06:34:57.339Z,101722.42
2023-10-06T06:40:03.154Z,101719.42
2023-10-06T06:45:09.589Z,101717.52
2023-10-06T06:50:17.040Z,101712.74
2023-10-06T06:55:23.068Z,101711.70
2023-10-06T07:00:28.604Z,101717.13
2023-10-06T07:05:35.788Z,101713.79
2023-10-06T07:10:48.314Z,101711.58
2023-10-06T07:15:54.904Z,101704.48
2023-10-06T07:21:00.588Z,101697.63
2023-10-06T07:26:10.199Z,101696.46
2023-10-06T07:31:18.234Z,101694.31
2023-10-06T07:36:24.376Z,101691.45
2023-10-06T07:41:29.966Z,101687.96
2023-10-06T07:46:36.034Z,101690.80
2023-10-06T07:51:41.549Z,101693.98
2023-10-06T07:56:48.833Z,101694.31
2023-10-06T08:01:54.555Z,101697.19
2023-10-06T08:07:02.016Z,101694.70
2023-10-06T08:12:09.669Z,101690.55
2023-10-06T08:17:15.526Z,101685.51
2023-10-06T08:22:23.560Z,101685.14
2023-10-06T08:27:31.134Z,101687.35
2023-10-06T08:32:38.437Z,101697.13
2023-10-06T08:37:45.151Z,101702.82
2023-10-06T08:42:52.806Z,101701.68
2023-10-06T08:48:02.245Z,101694.80
2023-10-06T08:53:11.624Z,101688.98
2023-10-06T08:58:19.075Z,101660.23
2023-10-06T09:03:28.224Z,101646.44
2023-10-06T09:08:41.041Z,101641.83
2023-10-06T09:13:47.187Z,101633.06
2023-10-06T09:19:03.062Z,101632.12
2023-10-06T09:24:20.931Z,101634.71
2023-10-06T09:29:34.252Z,101626.95
2023-10-06T09:34:40.849Z,101631.13
2023-10-06T09:39:47.675Z,101623.42
2023-10-06T09:44:57.706Z,101620.79
2023-10-06T09:50:04.270Z,101613.81
2023-10-06T09:55:11.832Z,101604.60
2023-10-06T10:00:19.305Z,101599.58
2023-10-06T10:05:25.650Z,101582.59
2023-10-06T10:10:31.484Z,101559.83
2023-10-06T10:15:43.254Z,101560.01
2023-10-06T10:20:49.407Z,101561.36
2023-10-06T10:25:55.559Z,101563.73
2023-10-06T10:31:02.329Z,101547.52
2023-10-06T10:36:24.883Z,101549.02
2023-10-06T10:41:32.438Z,101547.18
2023-10-06T10:46:43.864Z,101530.52
2023-10-06T10:51:59.464Z,101514.89
2023-10-06T10:57:11.137Z,101514.25
2023-10-06T11:02:21.106Z,101515.87
2023-10-06T11:07:26.746Z,101513.27
2023-10-06T11:12:32.768Z,101510.89
2023-10-06T11:17:38.565Z,101494.43
2023-10-06T11:22:53.616Z,101497.89
2023-10-06T11:28:04.981Z,101494.19
2023-10-06T11:33:13.428Z,101479.49
2023-10-06T11:38:19.465Z,101477.90
2023-10-06T11:43:42.000Z,101474.45
2023-10-06T11:48:47.533Z,101467.95
2023-10-06T11:54:01.369Z,101461.11
2023-10-06T11:59:20.476Z,101448.63
2023-10-06T12:04:31.786Z,101445.83
2023-10-06T12:09:39.911Z,101441.30
2023-10-06T12:14:46.043Z,101427.12
2023-10-06T12:19:52.268Z,101398.98
2023-10-06T12:24:57.928Z,101399.57
2023-10-06T12:30:04.790Z,101394.77
2023-10-06T12:35:11.387Z,101387.02
2023-10-06T12:40:17.658Z,101376.42
2023-10-06T12:45:24.520Z,101369.83
2023-10-06T12:50:31.073Z,101357.65
2023-10-06T12:55:37.272Z,101350.61
2023-10-06T13:00:43.601Z,101348.74
2023-10-06T13:05:49.353Z,101342.20
2023-10-06T13:10:55.176Z,101336.70
2023-10-06T13:16:00.878Z,101313.61
2023-10-06T13:21:09.843Z,101292.59
2023-10-06T13:26:27.458Z,101282.73
2023-10-06T13:31:42.374Z,101269.80
2023-10-06T13:36:48.633Z,101262.26
2023-10-06T13:42:07.008Z,101249.14
2023-10-06T13:47:12.879Z,101235.04
2023-10-06T13:52:18.462Z,101221.88
2023-10-06T13:57:24.857Z,101220.93
2023-10-06T14:02:31.116Z,101220.61
2023-10-06T14:07:38.875Z,101213.55
2023-10-06T14:12:50.783Z,101201.24
2023-10-06T14:17:58.086Z,101176.70
2023-10-06T14:23:04.142Z,101161.25
2023-10-06T14:28:10.931Z,101144.27
2023-10-06T14:33:25.532Z,101131.83
2023-10-06T14:38:49.953Z,101120.77
2023-10-06T14:44:13.709Z,101110.29
2023-10-06T14:49:24.856Z,101101.99
2023-10-06T14:54:33.118Z,101095.69
2023-10-06T14:59:38.826Z,101087.13
2023-10-06T15:04:44.594Z,101072.10
2023-10-06T15:09:53.936Z,101068.89
2023-10-06T15:15:01.667Z,101060.05
2023-10-06T15:20:08.860Z,101043.13
2023-10-06T15:25:15.025Z,101036.07
2023-10-06T15:30:20.745Z,101033.92
2023-10-06T15:35:26.537Z,101035.27
2023-10-06T15:40:35.049Z,101025.84
2023-10-06T15:45:40.832Z,101017.39
2023-10-06T15:50:47.203Z,101004.94
2023-10-06T15:55:53.036Z,101005.08
2023-10-06T16:00:59.820Z,100999.17
2023-10-06T16:06:06.311Z,100991.77
2023-10-06T16:11:12.746Z,100987.21
2023-10-06T16:16:20.992Z,100984.15
2023-10-06T16:21:28.247Z,100987.19
2023-10-06T16:26:34.025Z,100988.86
2023-10-06T16:31:39.678Z,100982.61
2023-10-06T16:36:45.223Z,100964.00
2023-10-06T16:41:51.057Z,100955.83
2023-10-06T16:46:56.919Z,100962.61
2023-10-06T16:52:02.472Z,100956.34
2023-10-06T16:57:08.507Z,100950.27
2023-10-06T17:02:14.602Z,100954.96
2023-10-06T17:07:20.340Z,100952.04
2023-10-06T17:12:26.060Z,100940.98
2023-10-06T17:17:31.699Z,100933.66
2023-10-06T17:22:38.347Z,100924.60
2023-10-06T17:27:46.693Z,100919.52
2023-10-06T17:32:54.461Z,100920.20
2023-10-06T17:38:00.423Z,100918.23
2023-10-06T17:43:09.036Z,100911.90
2023-10-06T17:48:15.505Z,100908.34
2023-10-06T17:53:21.409Z,100907.29
2023-10-06T17:58:30.208Z,100902.01
2023-10-06T18:03:36.064Z,100893.99
2023-10-06T18:08:42.248Z,100895.11
2023-10-06T18:13:48.037Z,100889.04
2023-10-06T18:18:53.847Z,100877.23
2023-10-06T18:24:00.822Z,100871.56
2023-10-06T18:29:06.729Z,100864.06
2023-10-06T18:34:13.524Z,100859.05
2023-10-06T18:39:22.567Z,100855.02
2023-10-06T18:44:28.699Z,100844.22
2023-10-06T18:49:34.473Z,100835.27
2023-10-06T18:54:41.077Z,100829.80
2023-10-06T18:59:46.769Z,100826.52
2023-10-06T19:04:52.987Z,100812.96
2023-10-06T19:09:58.671Z,100810.15
2023-10-06T19:15:09.474Z,100806.10
2023-10-06T19:20:15.387Z,100799.66
2023-10-06T19:25:25.335Z,100795.40
2023-10-06T19:30:33.503Z,100786.20
2023-10-06T19:35:40.325Z,100779.20
2023-10-06T19:46:17.340Z,100763.86
2023-10-06T19:51:24.272Z,100753.94
2023-10-06T19:56:31.116Z,100758.35
2023-10-06T20:01:39.001Z,100749.71
2023-10-06T20:13:11.605Z,100737.94
2023-10-06T20:18:17.748Z,100732.86
2023-10-06T20:23:34.588Z,100727.09
2023-10-06T20:28:41.948Z,100715.02
2023-10-06T20:33:48.453Z,100717.14
2023-10-06T20:38:54.362Z,100713.60
2023-10-06T20:44:01.254Z,100708.03
2023-10-06T20:49:07.023Z,100697.27
2023-10-06T20:54:12.565Z,100691.44
2023-10-06T20:59:18.313Z,100676.55
2023-10-06T21:04:23.903Z,100666.54
2023-10-06T21:09:29.466Z,100654.08
2023-10-06T21:14:35.103Z,100643.80
2023-10-06T21:19:40.720Z,100627.09
2023-10-06T21:24:46.329Z,100611.13
2023-10-06T21:29:51.960Z,100602.63
2023-10-06T21:34:57.461Z,100596.10
2023-10-06T21:40:03.323Z,100591.53
2023-10-06T21:45:09.802Z,100591.23
2023-10-06T21:50:16.365Z,100577.39
2023-10-06T21:55:21.982Z,100574.90
2023-10-06T22:00:29.171Z,100564.02
2023-10-06T22:05:34.725Z,100555.20
2023-10-06T22:10:40.265Z,100542.71
2023-10-06T22:15:45.717Z,100533.59
2023-10-06T22:20:51.501Z,100528.53
2023-10-06T22:26:01.518Z,100518.30
2023-10-06T22:31:07.360Z,100503.52
2023-10-06T22:36:16.389Z,100496.01
2023-10-06T22:41:22.111Z,100487.95
2023-10-06T22:46:30.854Z,100470.70
2023-10-06T22:51:36.628Z,100460.61
2023-10-06T22:56:42.157Z,100454.63
2023-10-06T23:01:48.060Z,100443.44
2023-10-06T23:06:55.043Z,100430.27
2023-10-06T23:12:02.603Z,100418.02
2023-10-06T23:17:08.218Z,100406.77
2023-10-06T23:22:14.546Z,100403.16
2023-10-06T23:27:21.991Z,100399.25
2023-10-06T23:32:30.329Z,100391.73
2023-10-06T23:37:38.362Z,100386.12
2023-10-06T23:42:44.358Z,100370.42
2023-10-06T23:47:53.042Z,100357.23
2023-10-06T23:53:01.752Z,100343.54
2023-10-06T23:58:07.688Z,100344.27
